createdAt,value
2022-11-07T00:14:47.617Z,9.4
2022-11-07T00:29:47.650Z,9.3
2022-11-07T00:44:47.603Z,8.8
2022-11-07T00:59:47.590Z,8.3
2022-11-07T01:14:47.557Z,7.9
2022-11-07T01:29:47.547Z,7.7
2022-11-07T01:59:47.509Z,7.7
2022-11-07T02:14:47.503Z,7.7
2022-11-07T02:29:47.487Z,7.5
2022-11-07T02:44:47.470Z,7.1
2022-11-07T02:59:47.461Z,7.2
2022-11-07T03:14:47.493Z,6.8
2022-11-07T03:29:47.466Z,6.8
2022-11-07T03:44:47.416Z,6.9
2022-11-07T03:59:47.405Z,6.7
2022-11-07T04:14:47.412Z,6.4
2022-11-07T04:29:47.405Z,6.2
2022-11-07T04:44:47.359Z,6.1
2022-11-07T04:59:47.381Z,6.1
2022-11-07T05:14:47.337Z,5.9
2022-11-07T05:29:47.342Z,5.9
2022-11-07T05:44:47.312Z,6.1
2022-11-07T05:59:47.340Z,5.9
2022-11-07T06:14:47.296Z,5.9
2022-11-07T06:29:47.296Z,6.1
2022-11-07T06:44:47.242Z,6
2022-11-07T06:59:51.710Z,5.8
2022-11-07T07:14:47.232Z,5.7
2022-11-07T07:29:47.237Z,7.8
2022-11-07T07:44:47.189Z,10.3
2022-11-07T07:59:47.192Z,13.6
2022-11-07T08:14:47.162Z,15.9
2022-11-07T08:44:47.123Z,12
2022-11-07T08:59:47.131Z,10.4
2022-11-07T09:14:47.077Z,10
2022-11-07T09:29:47.077Z,10.2
2022-11-07T09:44:47.042Z,12.2
2022-11-07T09:59:47.032Z,15.4
2022-11-07T10:14:47.025Z,17.1
2022-11-07T10:29:47.010Z,17
2022-11-07T10:44:46.976Z,16.4
2022-11-07T10:59:47.039Z,16.1
2022-11-07T11:14:46.943Z,15.7
2022-11-07T11:29:46.920Z,14.9
2022-11-07T11:44:46.881Z,14.4
2022-11-07T11:59:46.871Z,14.5
2022-11-07T12:14:46.840Z,14.3
2022-11-07T12:29:46.829Z,14.5
2022-11-07T12:44:46.770Z,14.7
2022-11-07T13:14:46.746Z,15.3
2022-11-07T13:29:46.754Z,15.6
2022-11-07T13:44:46.667Z,15.6
2022-11-07T13:59:46.679Z,15.8
2022-11-07T14:14:46.661Z,16.1
2022-11-07T14:29:46.644Z,16.2
2022-11-07T14:44:55.124Z,16.1
2022-11-07T14:59:46.556Z,16
2022-11-07T15:14:46.571Z,15.8
2022-11-07T15:29:46.506Z,15.4
2022-11-07T15:44:46.491Z,15
2022-11-07T15:59:46.496Z,14.8
2022-11-07T16:14:46.441Z,14.4
2022-11-07T16:29:46.420Z,14
2022-11-07T16:44:46.441Z,13.3
2022-11-07T16:59:46.370Z,12.7
2022-11-07T17:14:46.363Z,12.3
2022-11-07T17:29:46.371Z,11.8
2022-11-07T17:44:46.325Z,11.7
2022-11-07T17:59:46.332Z,11.4
2022-11-07T18:14:46.307Z,10.9
2022-11-07T18:29:46.296Z,10.6
2022-11-07T18:44:46.246Z,10.3
2022-11-07T18:59:46.277Z,10.1
2022-11-07T19:14:46.211Z,9.9
2022-11-07T19:29:46.283Z,9.7
2022-11-07T19:44:50.461Z,9.8
2022-11-07T19:59:46.232Z,9.9
2022-11-07T20:14:46.137Z,9.6
2022-11-07T20:29:46.198Z,9.5
2022-11-07T20:44:46.106Z,9.5
2022-11-07T20:59:46.128Z,9.6
2022-11-07T21:14:46.067Z,9.6
2022-11-07T21:29:46.095Z,9.3
2022-11-07T21:44:46.032Z,9.2
2022-11-07T21:59:46.073Z,8.9
2022-11-07T22:14:46.030Z,8.4
2022-11-07T22:29:46.022Z,8.1
2022-11-07T22:44:45.979Z,8.2
2022-11-07T22:59:45.990Z,8.1
2022-11-07T23:14:45.968Z,8.4
2022-11-07T23:29:45.972Z,8.3
2022-11-07T23:44:45.904Z,8.1
2022-11-07T23:59:45.937Z,8
